createdAt,value
2022-10-20T00:03:27.812Z,77.35
2022-10-20T00:08:30.470Z,77.76
2022-10-20T00:13:34.399Z,77.64
2022-10-20T00:18:37.750Z,77.57
2022-10-20T00:23:40.352Z,77.12
2022-10-20T00:28:44.774Z,77.01
2022-10-20T00:33:47.818Z,76.75
2022-10-20T00:38:50.869Z,76.95
2022-10-20T00:43:56.173Z,77.47
2022-10-20T00:49:01.451Z,77.54
2022-10-20T00:54:09.033Z,77.34
2022-10-20T00:59:15.939Z,77.20
2022-10-20T01:04:18.958Z,77.10
2022-10-20T01:09:21.632Z,77.28
2022-10-20T01:14:36.307Z,77.20
2022-10-20T01:19:53.748Z,77.34
2022-10-20T01:25:02.624Z,77.91
2022-10-20T01:30:12.582Z,77.53
2022-10-20T01:35:22.193Z,77.52
2022-10-20T01:40:28.507Z,77.57
2022-10-20T01:45:34.993Z,77.80
2022-10-20T01:50:38.343Z,77.74
2022-10-20T01:55:41.546Z,77.66
2022-10-20T02:00:45.998Z,77.77
2022-10-20T02:05:58.307Z,77.93
2022-10-20T02:11:03.134Z,77.97
2022-10-20T02:16:10.567Z,77.92
2022-10-20T02:21:13.279Z,78.10
2022-10-20T02:26:17.189Z,77.96
2022-10-20T02:31:21.703Z,77.96
2022-10-20T02:36:28.074Z,77.87
2022-10-20T02:41:31.148Z,78.14
2022-10-20T02:46:35.252Z,78.21
2022-10-20T02:51:38.024Z,77.84
2022-10-20T02:56:40.616Z,77.78
2022-10-20T03:01:44.848Z,77.59
2022-10-20T03:06:47.543Z,77.78
2022-10-20T03:11:50.123Z,77.77
2022-10-20T03:16:54.063Z,77.29
2022-10-20T03:21:56.687Z,77.38
2022-10-20T03:26:59.351Z,77.85
2022-10-20T03:32:03.286Z,77.42
2022-10-20T03:37:06.021Z,77.68
2022-10-20T03:42:08.670Z,77.42
2022-10-20T03:47:13.138Z,77.90
2022-10-20T03:52:15.761Z,77.97
2022-10-20T03:57:18.447Z,78.39
2022-10-20T04:02:31.715Z,78.35
2022-10-20T04:07:34.419Z,78.35
2022-10-20T04:12:37.627Z,78.72
2022-10-20T04:17:41.969Z,78.65
2022-10-20T04:22:44.595Z,78.46
2022-10-20T04:27:47.211Z,78.70
2022-10-20T04:32:51.263Z,78.46
2022-10-20T04:37:55.511Z,78.15
2022-10-20T04:42:59.982Z,78.77
2022-10-20T04:48:05.821Z,79.00
2022-10-20T04:53:08.606Z,78.89
2022-10-20T04:58:11.381Z,78.65
2022-10-20T05:03:15.386Z,78.91
2022-10-20T05:08:17.996Z,78.87
2022-10-20T05:13:20.702Z,79.17
2022-10-20T05:18:24.973Z,79.29
2022-10-20T05:23:27.682Z,79.21
2022-10-20T05:28:30.516Z,79.16
2022-10-20T05:33:34.721Z,79.38
2022-10-20T05:38:37.879Z,79.21
2022-10-20T05:43:41.312Z,79.22
2022-10-20T05:48:45.414Z,79.62
2022-10-20T05:53:48.441Z,79.51
2022-10-20T05:58:51.023Z,79.37
2022-10-20T06:03:56.577Z,79.18
2022-10-20T06:09:00.519Z,79.08
2022-10-20T06:14:03.259Z,79.28
2022-10-20T06:19:07.816Z,79.50
2022-10-20T06:24:11.057Z,79.61
2022-10-20T06:29:16.203Z,79.03
2022-10-20T06:34:21.666Z,78.80
2022-10-20T06:39:25.095Z,78.76
2022-10-20T06:44:27.737Z,78.66
2022-10-20T06:49:32.102Z,78.68
2022-10-20T06:54:34.717Z,78.20
2022-10-20T06:59:38.672Z,78.33
2022-10-20T07:04:42.929Z,77.76
2022-10-20T07:09:45.526Z,78.01
2022-10-20T07:14:49.203Z,77.31
2022-10-20T07:19:53.338Z,77.29
2022-10-20T07:24:56.066Z,77.26
2022-10-20T07:29:58.670Z,76.60
2022-10-20T07:35:02.677Z,76.56
2022-10-20T07:40:06.324Z,76.50
2022-10-20T07:45:09.870Z,76.15
2022-10-20T07:50:13.968Z,76.28
2022-10-20T07:55:33.529Z,76.54
2022-10-20T08:05:48.413Z,75.91
2022-10-20T08:10:51.230Z,76.05
2022-10-20T08:15:54.025Z,75.63
2022-10-20T08:21:09.374Z,75.95
2022-10-20T08:26:13.078Z,75.76
2022-10-20T08:31:15.795Z,75.77
2022-10-20T08:36:19.888Z,75.93
2022-10-20T08:41:24.752Z,75.78
2022-10-20T08:46:30.770Z,75.64
2022-10-20T08:51:38.202Z,75.49
2022-10-20T08:56:40.940Z,75.58
2022-10-20T09:01:43.636Z,75.38
2022-10-20T09:06:51.367Z,75.10
2022-10-20T09:11:57.215Z,74.76
2022-10-20T09:17:00.851Z,74.41
2022-10-20T09:22:07.424Z,74.14
2022-10-20T09:27:22.602Z,73.96
2022-10-20T09:32:45.909Z,73.69
2022-10-20T09:38:03.025Z,73.62
2022-10-20T09:43:10.642Z,73.29
2022-10-20T09:48:20.305Z,72.94
2022-10-20T09:53:26.773Z,72.76
2022-10-20T09:58:31.193Z,72.60
2022-10-20T10:03:39.901Z,72.41
2022-10-20T10:08:46.774Z,72.17
2022-10-20T10:13:50.766Z,72.03
2022-10-20T10:18:59.770Z,71.76
2022-10-20T10:24:05.579Z,71.60
2022-10-20T10:29:17.669Z,71.09
2022-10-20T10:34:44.991Z,71.29
2022-10-20T10:39:49.550Z,71.39
2022-10-20T10:44:57.471Z,71.04
2022-10-20T10:50:04.555Z,70.78
2022-10-20T10:55:30.504Z,70.40
2022-10-20T11:00:43.902Z,69.90
2022-10-20T11:06:15.457Z,69.77
2022-10-20T11:11:28.724Z,69.07
2022-10-20T11:16:34.351Z,68.35
2022-10-20T11:21:44.550Z,67.03
2022-10-20T11:26:52.167Z,65.39
2022-10-20T11:31:58.719Z,64.25
2022-10-20T11:37:05.996Z,63.71
2022-10-20T11:42:19.826Z,63.03
2022-10-20T11:47:26.819Z,62.51
2022-10-20T11:53:00.635Z,62.19
2022-10-20T11:58:15.839Z,62.64
2022-10-20T12:03:46.914Z,62.05
2022-10-20T12:09:20.399Z,61.82
2022-10-20T12:14:27.375Z,61.30
2022-10-20T12:19:31.449Z,60.92
2022-10-20T12:24:36.955Z,60.73
2022-10-20T12:29:58.401Z,60.87
2022-10-20T12:35:02.653Z,60.62
2022-10-20T12:40:21.630Z,62.62
2022-10-20T12:45:36.784Z,63.58
2022-10-20T12:50:41.611Z,64.28
2022-10-20T12:55:45.689Z,65.32
2022-10-20T13:01:09.637Z,65.78
2022-10-20T13:06:45.141Z,64.88
2022-10-20T13:11:58.157Z,64.36
2022-10-20T13:17:11.673Z,63.48
2022-10-20T13:22:38.925Z,63.01
2022-10-20T13:27:41.627Z,63.21
2022-10-20T13:33:10.877Z,63.37
2022-10-20T13:38:18.039Z,63.12
2022-10-20T13:43:30.791Z,63.29
2022-10-20T13:48:45.293Z,63.48
2022-10-20T13:53:50.094Z,63.56
2022-10-20T13:59:04.536Z,63.69
2022-10-20T14:04:26.159Z,63.61
2022-10-20T14:09:28.796Z,63.25
2022-10-20T14:14:32.034Z,63.20
2022-10-20T14:19:36.457Z,62.88
2022-10-20T14:24:43.121Z,62.50
2022-10-20T14:29:46.541Z,62.35
2022-10-20T14:34:58.656Z,62.15
2022-10-20T14:40:02.310Z,62.25
2022-10-20T14:45:05.881Z,62.23
2022-10-20T14:50:21.383Z,61.97
2022-10-20T14:55:35.274Z,62.17
2022-10-20T15:00:38.454Z,62.82
2022-10-20T15:05:45.228Z,63.25
2022-10-20T15:10:47.950Z,63.69
2022-10-20T15:15:50.753Z,64.04
2022-10-20T15:20:55.654Z,64.55
2022-10-20T15:26:00.330Z,65.08
2022-10-20T15:31:05.148Z,65.53
2022-10-20T15:36:14.994Z,65.89
2022-10-20T15:41:19.444Z,66.19
2022-10-20T15:46:22.880Z,66.63
2022-10-20T15:51:28.676Z,66.85
2022-10-20T15:56:31.274Z,67.27
2022-10-20T16:01:34.234Z,67.53
2022-10-20T16:06:38.721Z,67.60
2022-10-20T16:11:41.333Z,67.77
2022-10-20T16:16:45.100Z,68.05
2022-10-20T16:21:49.235Z,68.22
2022-10-20T16:26:52.706Z,68.30
2022-10-20T16:31:55.667Z,68.47
2022-10-20T16:36:59.765Z,68.60
2022-10-20T16:42:02.545Z,68.66
2022-10-20T16:47:05.565Z,68.85
2022-10-20T16:52:09.660Z,68.80
2022-10-20T16:57:13.054Z,68.95
2022-10-20T17:02:16.253Z,68.99
2022-10-20T17:07:20.419Z,69.23
2022-10-20T17:12:23.198Z,69.25
2022-10-20T17:17:25.871Z,69.24
2022-10-20T17:22:29.955Z,69.45
2022-10-20T17:27:32.830Z,69.15
2022-10-20T17:32:36.379Z,69.09
2022-10-20T17:37:40.658Z,68.96
2022-10-20T17:42:43.379Z,68.95
2022-10-20T17:47:46.158Z,68.98
2022-10-20T17:52:50.642Z,68.95
2022-10-20T17:57:53.302Z,68.86
2022-10-20T18:02:56.059Z,68.84
2022-10-20T18:08:00.287Z,68.86
2022-10-20T18:13:03.136Z,69.23
2022-10-20T18:18:06.212Z,68.84
2022-10-20T18:23:10.513Z,68.85
2022-10-20T18:33:24.278Z,68.71
2022-10-20T18:38:28.426Z,68.73
2022-10-20T18:43:31.041Z,68.68
2022-10-20T18:48:35.597Z,68.64
2022-10-20T18:58:49.286Z,69.05
2022-10-20T19:03:53.168Z,68.99
2022-10-20T19:08:58.260Z,68.94
2022-10-20T19:14:01.481Z,68.99
2022-10-20T19:19:06.381Z,68.99
2022-10-20T19:24:13.489Z,69.07
2022-10-20T19:29:18.453Z,69.03
2022-10-20T19:34:23.154Z,68.97
2022-10-20T19:39:29.594Z,68.74
2022-10-20T19:44:32.422Z,69.00
2022-10-20T19:49:37.630Z,68.82
2022-10-20T19:54:42.012Z,68.67
2022-10-20T19:59:44.846Z,68.85
2022-10-20T20:04:47.850Z,69.05
2022-10-20T20:09:51.997Z,69.94
2022-10-20T20:14:54.695Z,70.32
2022-10-20T20:19:57.906Z,70.94
2022-10-20T20:25:02.067Z,71.45
2022-10-20T20:30:05.337Z,71.33
2022-10-20T20:35:09.477Z,71.11
2022-10-20T20:40:13.863Z,70.99
2022-10-20T20:45:16.793Z,71.17
2022-10-20T20:50:19.552Z,71.33
2022-10-20T20:55:23.479Z,71.46
2022-10-20T21:00:26.301Z,71.41
2022-10-20T21:05:29.385Z,71.54
2022-10-20T21:10:35.609Z,71.61
2022-10-20T21:15:38.285Z,71.61
2022-10-20T21:20:41.100Z,71.66
2022-10-20T21:25:47.851Z,71.98
2022-10-20T21:30:50.757Z,72.27
2022-10-20T21:35:53.383Z,72.37
2022-10-20T21:41:02.332Z,72.50
2022-10-20T21:46:13.502Z,72.57
2022-10-20T21:51:18.170Z,72.63
2022-10-20T21:56:22.151Z,72.55
2022-10-20T22:01:25.915Z,72.44
2022-10-20T22:06:28.801Z,72.54
2022-10-20T22:11:34.531Z,72.42
2022-10-20T22:16:38.346Z,72.51
2022-10-20T22:21:43.111Z,72.66
2022-10-20T22:26:47.849Z,72.53
2022-10-20T22:31:51.134Z,72.44
2022-10-20T22:36:53.725Z,72.50
2022-10-20T22:41:57.743Z,72.59
2022-10-20T22:47:00.313Z,72.52
2022-10-20T22:52:02.973Z,72.53
2022-10-20T22:57:07.019Z,72.44
2022-10-20T23:02:09.687Z,72.32
2022-10-20T23:07:12.284Z,72.29
2022-10-20T23:12:18.133Z,72.34
2022-10-20T23:17:20.754Z,72.25
2022-10-20T23:22:23.367Z,72.46
2022-10-20T23:27:27.315Z,72.35
2022-10-20T23:32:29.965Z,72.50
2022-10-20T23:37:32.611Z,72.58
2022-10-20T23:42:36.541Z,72.76
2022-10-20T23:47:39.538Z,72.66
2022-10-20T23:52:42.382Z,72.64
2022-10-20T23:57:46.320Z,72.67
